sensor_id;sensor_type;location;lat;lon;timestamp;pressure;altitude;pressure_sealevel;temperature;humidity
18985;BME280;9626;52.552;13.436;2023-03-23T00:01:56;99993.22;;;11.90;100.00
18985;BME280;9626;52.552;13.436;2023-03-23T00:04:23;99984.53;;;11.84;100.00
18985;BME280;9626;52.552;13.436;2023-03-23T00:06:51;99985.50;;;11.83;100.00
18985;BME280;9626;52.552;13.436;2023-03-23T00:09:17;99975.78;;;11.82;100.00
18985;BME280;9626;52.552;13.436;2023-03-23T00:11:50;99975.03;;;11.79;100.00
18985;BME280;9626;52.552;13.436;2023-03-23T00:14:16;99970.69;;;11.76;100.00
18985;BME280;9626;52.552;13.436;2023-03-23T00:16:48;99967.19;;;11.76;100.00
18985;BME280;9626;52.552;13.436;2023-03-23T00:19:17;99973.59;;;11.70;100.00
18985;BME280;9626;52.552;13.436;2023-03-23T00:21:45;99978.88;;;11.70;100.00
18985;BME280;9626;52.552;13.436;2023-03-23T00:24:17;99972.75;;;11.68;100.00
18985;BME280;9626;52.552;13.436;2023-03-23T00:26:48;99969.25;;;11.67;100.00
18985;BME280;9626;52.552;13.436;2023-03-23T00:29:18;99960.47;;;11.65;100.00
18985;BME280;9626;52.552;13.436;2023-03-23T00:31:47;99960.44;;;11.67;100.00
18985;BME280;9626;52.552;13.436;2023-03-23T00:34:16;99948.09;;;11.66;100.00
18985;BME280;9626;52.552;13.436;2023-03-23T00:36:47;99950.84;;;11.63;100.00
18985;BME280;9626;52.552;13.436;2023-03-23T00:39:15;99956.25;;;11.60;100.00
18985;BME280;9626;52.552;13.436;2023-03-23T00:41:46;99951.78;;;11.62;100.00
18985;BME280;9626;52.552;13.436;2023-03-23T00:44:13;99942.94;;;11.61;100.00
18985;BME280;9626;52.552;13.436;2023-03-23T00:46:49;99940.34;;;11.60;100.00
18985;BME280;9626;52.552;13.436;2023-03-23T00:49:18;99934.25;;;11.58;100.00
18985;BME280;9626;52.552;13.436;2023-03-23T00:51:45;99934.41;;;11.53;100.00
18985;BME280;9626;52.552;13.436;2023-03-23T00:54:11;99931.91;;;11.48;100.00
18985;BME280;9626;52.552;13.436;2023-03-23T00:56:38;99931.09;;;11.46;100.00
18985;BME280;9626;52.552;13.436;2023-03-23T00:59:07;99923.25;;;11.43;100.00
18985;BME280;9626;52.552;13.436;2023-03-23T01:01:33;99915.47;;;11.39;100.00
18985;BME280;9626;52.552;13.436;2023-03-23T01:04:01;99914.59;;;11.38;100.00
18985;BME280;9626;52.552;13.436;2023-03-23T01:06:34;99911.94;;;11.38;100.00
18985;BME280;9626;52.552;13.436;2023-03-23T01:09:02;99912.97;;;11.34;100.00
18985;BME280;9626;52.552;13.436;2023-03-23T01:11:28;99912.97;;;11.34;100.00
18985;BME280;9626;52.552;13.436;2023-03-23T01:13:54;99921.09;;;11.29;100.00
18985;BME280;9626;52.552;13.436;2023-03-23T01:16:21;99916.66;;;11.30;100.00
18985;BME280;9626;52.552;13.436;2023-03-23T01:18:47;99908.81;;;11.27;100.00
18985;BME280;9626;52.552;13.436;2023-03-23T01:21:17;99912.31;;;11.27;100.00
18985;BME280;9626;52.552;13.436;2023-03-23T01:23:44;99909.72;;;11.26;100.00
18985;BME280;9626;52.552;13.436;2023-03-23T01:26:15;99904.53;;;11.23;100.00
18985;BME280;9626;52.552;13.436;2023-03-23T01:28:43;99904.59;;;11.21;100.00
18985;BME280;9626;52.552;13.436;2023-03-23T01:31:13;99891.28;;;11.23;100.00
18985;BME280;9626;52.552;13.436;2023-03-23T01:33:41;99892.25;;;11.20;100.00
18985;BME280;9626;52.552;13.436;2023-03-23T01:36:10;99896.78;;;11.16;100.00
18985;BME280;9626;52.552;13.436;2023-03-23T01:38:36;99886.31;;;11.13;100.00
18985;BME280;9626;52.552;13.436;2023-03-23T01:41:03;99890.69;;;11.14;100.00
18985;BME280;9626;52.552;13.436;2023-03-23T01:43:29;99890.81;;;11.11;100.00
18985;BME280;9626;52.552;13.436;2023-03-23T01:45:56;99894.38;;;11.10;100.00
18985;BME280;9626;52.552;13.436;2023-03-23T01:48:28;99897.88;;;11.11;100.00
18985;BME280;9626;52.552;13.436;2023-03-23T01:53:31;99891.91;;;11.04;100.00
18985;BME280;9626;52.552;13.436;2023-03-23T01:56:02;99885.00;;;11.00;100.00
18985;BME280;9626;52.552;13.436;2023-03-23T01:58:31;99881.31;;;11.04;100.00
18985;BME280;9626;52.552;13.436;2023-03-23T02:01:02;99878.72;;;11.03;100.00
18985;BME280;9626;52.552;13.436;2023-03-23T02:03:30;99874.38;;;11.02;100.00
18985;BME280;9626;52.552;13.436;2023-03-23T02:06:00;99875.06;;;11.07;100.00
18985;BME280;9626;52.552;13.436;2023-03-23T02:08:28;99867.03;;;11.08;100.00
18985;BME280;9626;52.552;13.436;2023-03-23T02:10:58;99866.38;;;11.03;100.00
18985;BME280;9626;52.552;13.436;2023-03-23T02:13:26;99868.19;;;11.01;100.00
18985;BME280;9626;52.552;13.436;2023-03-23T02:24:55;99866.38;;;11.03;100.00
18985;BME280;9626;52.552;13.436;2023-03-23T02:30:43;99849.53;;;11.04;100.00
18985;BME280;9626;52.552;13.436;2023-03-23T02:36:05;99853.00;;;11.06;100.00
18985;BME280;9626;52.552;13.436;2023-03-23T02:41:10;99861.75;;;11.08;100.00
18985;BME280;9626;52.552;13.436;2023-03-23T02:43:43;99858.84;;;11.16;100.00
18985;BME280;9626;52.552;13.436;2023-03-23T02:46:12;99865.81;;;11.19;100.00
18985;BME280;9626;52.552;13.436;2023-03-23T02:48:40;99867.44;;;11.23;100.00
18985;BME280;9626;52.552;13.436;2023-03-23T02:51:08;99872.91;;;11.18;100.00
18985;BME280;9626;52.552;13.436;2023-03-23T02:53:37;99858.06;;;11.12;100.00
18985;BME280;9626;52.552;13.436;2023-03-23T02:56:06;99862.56;;;11.10;100.00
18985;BME280;9626;52.552;13.436;2023-03-23T02:58:34;99851.97;;;11.10;100.00
18985;BME280;9626;52.552;13.436;2023-03-23T03:03:54;99857.22;;;11.12;100.00
18985;BME280;9626;52.552;13.436;2023-03-23T03:06:34;99853.72;;;11.11;100.00
18985;BME280;9626;52.552;13.436;2023-03-23T03:09:20;99841.38;;;11.10;100.00
18985;BME280;9626;52.552;13.436;2023-03-23T03:11:51;99848.41;;;11.11;100.00
18985;BME280;9626;52.552;13.436;2023-03-23T03:14:57;99850.84;;;11.18;100.00
18985;BME280;9626;52.552;13.436;2023-03-23T03:17:26;99848.78;;;11.26;100.00
18985;BME280;9626;52.552;13.436;2023-03-23T03:19:57;99842.63;;;11.25;100.00
18985;BME280;9626;52.552;13.436;2023-03-23T03:22:25;99839.00;;;11.28;100.00
18985;BME280;9626;52.552;13.436;2023-03-23T03:24:57;99839.13;;;11.25;100.00
18985;BME280;9626;52.552;13.436;2023-03-23T03:27:27;99857.59;;;11.26;100.00
18985;BME280;9626;52.552;13.436;2023-03-23T03:29:59;99838.13;;;11.27;100.00
18985;BME280;9626;52.552;13.436;2023-03-23T03:32:47;99843.41;;;11.27;100.00
18985;BME280;9626;52.552;13.436;2023-03-23T03:35:17;99854.78;;;11.31;100.00
18985;BME280;9626;52.552;13.436;2023-03-23T03:37:43;99848.63;;;11.30;100.00
18985;BME280;9626;52.552;13.436;2023-03-23T03:40:14;99846.91;;;11.29;100.00
18985;BME280;9626;52.552;13.436;2023-03-23T03:42:43;99855.09;;;11.22;100.00
18985;BME280;9626;52.552;13.436;2023-03-23T03:45:12;99853.72;;;11.11;100.00
18985;BME280;9626;52.552;13.436;2023-03-23T03:47:39;99836.41;;;11.01;100.00
18985;BME280;9626;52.552;13.436;2023-03-23T03:50:05;99848.34;;;10.88;100.00
18985;BME280;9626;52.552;13.436;2023-03-23T03:52:33;99842.44;;;10.79;100.00
18985;BME280;9626;52.552;13.436;2023-03-23T03:54:59;99839.00;;;10.77;100.00
18985;BME280;9626;52.552;13.436;2023-03-23T03:57:25;99835.44;;;10.78;100.00
18985;BME280;9626;52.552;13.436;2023-03-23T03:59:52;99836.94;;;10.86;100.00
18985;BME280;9626;52.552;13.436;2023-03-23T04:02:19;99841.31;;;10.87;100.00
18985;BME280;9626;52.552;13.436;2023-03-23T04:04:47;99840.31;;;10.91;100.00
18985;BME280;9626;52.552;13.436;2023-03-23T04:07:14;99841.00;;;10.96;100.00
18985;BME280;9626;52.552;13.436;2023-03-23T04:09:43;99848.84;;;10.99;100.00
18985;BME280;9626;52.552;13.436;2023-03-23T04:12:13;99842.59;;;11.00;100.00
18985;BME280;9626;52.552;13.436;2023-03-23T04:14:39;99833.75;;;11.01;100.00
18985;BME280;9626;52.552;13.436;2023-03-23T04:17:07;99818.81;;;10.98;100.00
18985;BME280;9626;52.552;13.436;2023-03-23T04:19:35;99817.84;;;11.01;100.00
18985;BME280;9626;52.552;13.436;2023-03-23T04:22:03;99832.00;;;11.00;100.00
18985;BME280;9626;52.552;13.436;2023-03-23T04:24:29;99842.66;;;10.98;100.00
18985;BME280;9626;52.552;13.436;2023-03-23T04:26:57;99831.22;;;10.98;100.00
18985;BME280;9626;52.552;13.436;2023-03-23T04:29:24;99828.50;;;10.99;100.00
18985;BME280;9626;52.552;13.436;2023-03-23T04:31:49;99820.50;;;11.01;100.00
18985;BME280;9626;52.552;13.436;2023-03-23T04:34:18;99817.00;;;11.01;100.00
18985;BME280;9626;52.552;13.436;2023-03-23T04:36:45;99827.53;;;11.02;100.00
18985;BME280;9626;52.552;13.436;2023-03-23T04:39:12;99823.00;;;11.06;100.00
18985;BME280;9626;52.552;13.436;2023-03-23T04:41:39;99812.88;;;10.92;100.00
18985;BME280;9626;52.552;13.436;2023-03-23T04:44:06;99822.19;;;10.78;100.00
18985;BME280;9626;52.552;13.436;2023-03-23T04:46:32;99827.06;;;10.64;100.00
18985;BME280;9626;52.552;13.436;2023-03-23T04:49:00;99837.97;;;10.55;100.00
18985;BME280;9626;52.552;13.436;2023-03-23T04:51:28;99852.09;;;10.54;100.00
18985;BME280;9626;52.552;13.436;2023-03-23T04:53:54;99849.72;;;10.46;100.00
18985;BME280;9626;52.552;13.436;2023-03-23T04:56:20;99852.72;;;10.35;100.00
18985;BME280;9626;52.552;13.436;2023-03-23T04:58:47;99857.53;;;10.21;100.00
18985;BME280;9626;52.552;13.436;2023-03-23T05:01:13;99859.56;;;10.12;100.00
18985;BME280;9626;52.552;13.436;2023-03-23T05:03:40;99870.19;;;10.11;100.00
18985;BME280;9626;52.552;13.436;2023-03-23T05:06:06;99878.41;;;10.02;100.00
18985;BME280;9626;52.552;13.436;2023-03-23T05:08:33;99881.94;;;10.02;100.00
18985;BME280;9626;52.552;13.436;2023-03-23T05:11:00;99873.06;;;10.03;100.00
18985;BME280;9626;52.552;13.436;2023-03-23T05:13:29;99858.75;;;10.10;100.00
18985;BME280;9626;52.552;13.436;2023-03-23T05:15:55;99869.28;;;10.12;100.00
18985;BME280;9626;52.552;13.436;2023-03-23T05:18:21;99859.56;;;10.12;100.00
18985;BME280;9626;52.552;13.436;2023-03-23T05:20:47;99850.91;;;10.07;100.00
18985;BME280;9626;52.552;13.436;2023-03-23T05:23:14;99864.31;;;10.01;100.00
18985;BME280;9626;52.552;13.436;2023-03-23T05:25:42;99855.59;;;9.97;100.00
18985;BME280;9626;52.552;13.436;2023-03-23T05:28:09;99856.50;;;9.96;100.00
18985;BME280;9626;52.552;13.436;2023-03-23T05:30:36;99855.75;;;9.93;100.00
18985;BME280;9626;52.552;13.436;2023-03-23T05:33:04;99860.09;;;9.95;100.00
18985;BME280;9626;52.552;13.436;2023-03-23T05:35:30;99851.31;;;9.93;100.00
18985;BME280;9626;52.552;13.436;2023-03-23T05:37:57;99858.41;;;9.93;100.00
18985;BME280;9626;52.552;13.436;2023-03-23T05:40:23;99868.94;;;9.94;100.00
18985;BME280;9626;52.552;13.436;2023-03-23T05:42:52;99872.47;;;9.93;100.00
18985;BME280;9626;52.552;13.436;2023-03-23T05:45:18;99875.19;;;9.92;100.00
18985;BME280;9626;52.552;13.436;2023-03-23T05:47:45;99882.38;;;9.87;100.00
18985;BME280;9626;52.552;13.436;2023-03-23T05:50:11;99875.44;;;9.82;100.00
18985;BME280;9626;52.552;13.436;2023-03-23T05:52:38;99880.81;;;9.79;100.00
18985;BME280;9626;52.552;13.436;2023-03-23T05:55:05;99884.72;;;9.66;100.00
18985;BME280;9626;52.552;13.436;2023-03-23T05:57:32;99888.56;;;9.56;100.00
18985;BME280;9626;52.552;13.436;2023-03-23T05:59:58;99888.81;;;9.46;100.00
18985;BME280;9626;52.552;13.436;2023-03-23T06:02:24;99890.81;;;9.38;100.00
18985;BME280;9626;52.552;13.436;2023-03-23T06:04:54;99903.25;;;9.33;100.00
18985;BME280;9626;52.552;13.436;2023-03-23T06:07:26;99907.78;;;9.28;100.00
18985;BME280;9626;52.552;13.436;2023-03-23T06:09:53;99914.16;;;9.21;100.00
18985;BME280;9626;52.552;13.436;2023-03-23T06:12:19;99913.25;;;9.22;100.00
18985;BME280;9626;52.552;13.436;2023-03-23T06:14:48;99904.50;;;9.20;100.00
18985;BME280;9626;52.552;13.436;2023-03-23T06:17:16;99914.25;;;9.18;100.00
18985;BME280;9626;52.552;13.436;2023-03-23T06:19:44;99921.25;;;9.19;100.00
18985;BME280;9626;52.552;13.436;2023-03-23T06:22:14;99930.94;;;9.18;100.00
18985;BME280;9626;52.552;13.436;2023-03-23T06:24:43;99919.53;;;9.18;100.00
18985;BME280;9626;52.552;13.436;2023-03-23T06:27:09;99931.09;;;9.13;100.00
18985;BME280;9626;52.552;13.436;2023-03-23T06:29:36;99926.69;;;9.12;100.00
18985;BME280;9626;52.552;13.436;2023-03-23T06:32:05;99931.97;;;9.12;100.00
18985;BME280;9626;52.552;13.436;2023-03-23T06:34:31;99933.75;;;9.12;100.00
18985;BME280;9626;52.552;13.436;2023-03-23T06:36:58;99937.97;;;9.19;100.00
18985;BME280;9626;52.552;13.436;2023-03-23T06:39:24;99937.09;;;9.19;100.00
18985;BME280;9626;52.552;13.436;2023-03-23T06:41:50;99937.09;;;9.19;100.00
18985;BME280;9626;52.552;13.436;2023-03-23T06:44:17;99940.66;;;9.18;100.00
18985;BME280;9626;52.552;13.436;2023-03-23T06:46:43;99940.63;;;9.19;100.00
18985;BME280;9626;52.552;13.436;2023-03-23T06:49:09;99947.63;;;9.20;100.00
18985;BME280;9626;52.552;13.436;2023-03-23T06:51:36;99945.78;;;9.24;100.00
18985;BME280;9626;52.552;13.436;2023-03-23T06:54:03;99949.13;;;9.30;100.00
18985;BME280;9626;52.552;13.436;2023-03-23T06:56:29;99940.16;;;9.36;100.00
18985;BME280;9626;52.552;13.436;2023-03-23T06:58:55;99943.78;;;9.32;100.00
18985;BME280;9626;52.552;13.436;2023-03-23T07:01:21;99950.81;;;9.33;100.00
18985;BME280;9626;52.552;13.436;2023-03-23T07:03:47;99950.81;;;9.33;100.00
18985;BME280;9626;52.552;13.436;2023-03-23T07:06:14;99955.16;;;9.36;100.00
18985;BME280;9626;52.552;13.436;2023-03-23T07:08:42;99954.22;;;9.38;100.00
18985;BME280;9626;52.552;13.436;2023-03-23T07:11:08;99950.63;;;9.39;100.00
18985;BME280;9626;52.552;13.436;2023-03-23T07:13:37;99946.16;;;9.43;100.00
18985;BME280;9626;52.552;13.436;2023-03-23T07:16:06;99947.91;;;9.44;100.00
18985;BME280;9626;52.552;13.436;2023-03-23T07:18:32;99932.00;;;9.45;100.00
18985;BME280;9626;52.552;13.436;2023-03-23T07:20:59;99927.56;;;9.47;100.00
18985;BME280;9626;52.552;13.436;2023-03-23T07:23:29;99909.06;;;9.47;100.00
18985;BME280;9626;52.552;13.436;2023-03-23T07:25:55;99922.19;;;9.51;100.00
18985;BME280;9626;52.552;13.436;2023-03-23T07:28:22;99939.88;;;9.47;100.00
18985;BME280;9626;52.552;13.436;2023-03-23T07:30:48;99931.00;;;9.50;100.00
18985;BME280;9626;52.552;13.436;2023-03-23T07:33:14;99922.19;;;9.51;100.00
18985;BME280;9626;52.552;13.436;2023-03-23T07:35:41;99938.78;;;9.54;100.00
18985;BME280;9626;52.552;13.436;2023-03-23T07:38:07;99937.16;;;9.50;100.00
18985;BME280;9626;52.552;13.436;2023-03-23T07:40:34;99933.50;;;9.54;100.00
18985;BME280;9626;52.552;13.436;2023-03-23T07:43:02;99946.66;;;9.57;100.00
18985;BME280;9626;52.552;13.436;2023-03-23T07:45:28;99936.84;;;9.61;100.00
18985;BME280;9626;52.552;13.436;2023-03-23T07:47:55;99939.38;;;9.66;100.00
18985;BME280;9626;52.552;13.436;2023-03-23T07:50:21;99909.25;;;9.71;100.00
18985;BME280;9626;52.552;13.436;2023-03-23T07:52:53;99893.41;;;9.71;100.00
18985;BME280;9626;52.552;13.436;2023-03-23T07:55:20;99888.06;;;9.73;100.00
18985;BME280;9626;52.552;13.436;2023-03-23T07:57:47;99865.88;;;9.78;100.00
18985;BME280;9626;52.552;13.436;2023-03-23T08:00:18;99855.25;;;9.80;100.00
18985;BME280;9626;52.552;13.436;2023-03-23T08:02:46;99886.91;;;9.81;100.00
18985;BME280;9626;52.552;13.436;2023-03-23T08:05:15;99902.03;;;9.78;100.00
18985;BME280;9626;52.552;13.436;2023-03-23T08:07:42;99915.06;;;9.84;100.00
18985;BME280;9626;52.552;13.436;2023-03-23T08:10:09;99907.06;;;9.86;100.00
18985;BME280;9626;52.552;13.436;2023-03-23T08:12:40;99910.44;;;9.91;100.00
18985;BME280;9626;52.552;13.436;2023-03-23T08:15:08;99922.69;;;9.95;100.00
18985;BME280;9626;52.552;13.436;2023-03-23T08:17:35;99927.91;;;9.98;100.00
18985;BME280;9626;52.552;13.436;2023-03-23T08:20:02;99920.66;;;10.03;100.00
18985;BME280;9626;52.552;13.436;2023-03-23T08:22:34;99925.97;;;10.03;100.00
18985;BME280;9626;52.552;13.436;2023-03-23T08:25:04;99925.00;;;10.06;100.00
18985;BME280;9626;52.552;13.436;2023-03-23T08:27:32;99922.31;;;10.07;100.00
18985;BME280;9626;52.552;13.436;2023-03-23T08:29:58;99925.78;;;10.09;100.00
18985;BME280;9626;52.552;13.436;2023-03-23T08:32:25;99932.81;;;10.10;100.00
18985;BME280;9626;52.552;13.436;2023-03-23T08:34:52;99922.25;;;10.10;100.00
18985;BME280;9626;52.552;13.436;2023-03-23T08:37:18;99910.72;;;10.11;100.00
18985;BME280;9626;52.552;13.436;2023-03-23T08:39:44;99871.88;;;10.13;100.00
18985;BME280;9626;52.552;13.436;2023-03-23T08:42:11;99893.81;;;10.17;100.00
18985;BME280;9626;52.552;13.436;2023-03-23T08:44:37;99921.88;;;10.23;100.00
18985;BME280;9626;52.552;13.436;2023-03-23T08:47:04;99931.41;;;10.28;100.00
18985;BME280;9626;52.552;13.436;2023-03-23T08:49:36;99938.31;;;10.32;100.00
18985;BME280;9626;52.552;13.436;2023-03-23T08:52:03;99923.16;;;10.39;100.00
18985;BME280;9626;52.552;13.436;2023-03-23T08:54:29;99919.50;;;10.43;100.00
18985;BME280;9626;52.552;13.436;2023-03-23T08:57:02;99917.66;;;10.45;100.00
18985;BME280;9626;52.552;13.436;2023-03-23T08:59:28;99908.72;;;10.49;100.00
18985;BME280;9626;52.552;13.436;2023-03-23T09:01:54;99913.94;;;10.53;100.00
18985;BME280;9626;52.552;13.436;2023-03-23T09:04:20;99908.41;;;10.59;100.00
18985;BME280;9626;52.552;13.436;2023-03-23T09:06:46;99922.22;;;10.69;100.00
18985;BME280;9626;52.552;13.436;2023-03-23T09:09:13;99937.72;;;10.81;100.00
18985;BME280;9626;52.552;13.436;2023-03-23T09:11:40;99933.41;;;10.78;100.00
18985;BME280;9626;52.552;13.436;2023-03-23T09:14:07;99932.41;;;10.81;100.00
18985;BME280;9626;52.552;13.436;2023-03-23T09:16:34;99935.13;;;10.79;100.00
18985;BME280;9626;52.552;13.436;2023-03-23T09:19:02;99942.22;;;10.79;100.00
18985;BME280;9626;52.552;13.436;2023-03-23T09:21:28;99927.94;;;10.83;100.00
18985;BME280;9626;52.552;13.436;2023-03-23T09:23:55;99921.59;;;10.89;100.00
18985;BME280;9626;52.552;13.436;2023-03-23T09:26:27;99911.81;;;10.91;100.00
18985;BME280;9626;52.552;13.436;2023-03-23T09:28:53;99913.28;;;10.99;100.00
18985;BME280;9626;52.552;13.436;2023-03-23T09:31:22;99919.13;;;11.09;100.00
18985;BME280;9626;52.552;13.436;2023-03-23T09:33:53;99915.03;;;11.26;100.00
18985;BME280;9626;52.552;13.436;2023-03-23T09:36:21;99922.69;;;11.59;100.00
18985;BME280;9626;52.552;13.436;2023-03-23T09:38:48;99910.41;;;11.81;100.00
18985;BME280;9626;52.552;13.436;2023-03-23T09:47:29;99924.94;;;12.18;100.00
18985;BME280;9626;52.552;13.436;2023-03-23T09:50:09;99922.63;;;12.11;100.00
18985;BME280;9626;52.552;13.436;2023-03-23T09:52:45;99928.63;;;12.38;100.00
18985;BME280;9626;52.552;13.436;2023-03-23T09:55:15;99920.47;;;12.21;100.00
18985;BME280;9626;52.552;13.436;2023-03-23T09:58:23;99924.38;;;12.34;100.00
18985;BME280;9626;52.552;13.436;2023-03-23T10:01:15;99932.50;;;12.51;100.00
18985;BME280;9626;52.552;13.436;2023-03-23T10:03:44;99922.72;;;12.54;100.00
18985;BME280;9626;52.552;13.436;2023-03-23T10:06:14;99922.94;;;12.47;100.00
18985;BME280;9626;52.552;13.436;2023-03-23T10:08:45;99926.91;;;12.37;100.00
18985;BME280;9626;52.552;13.436;2023-03-23T10:17:23;99928.00;;;12.31;100.00
18985;BME280;9626;52.552;13.436;2023-03-23T10:20:02;99933.94;;;12.38;100.00
18985;BME280;9626;52.552;13.436;2023-03-23T10:22:42;99919.63;;;12.42;100.00
18985;BME280;9626;52.552;13.436;2023-03-23T10:27:56;99907.69;;;12.52;100.00
18985;BME280;9626;52.552;13.436;2023-03-23T10:30:31;99909.13;;;12.61;100.00
18985;BME280;9626;52.552;13.436;2023-03-23T10:36:02;99911.41;;;12.93;100.00
18985;BME280;9626;52.552;13.436;2023-03-23T10:38:34;99897.84;;;12.99;100.00
18985;BME280;9626;52.552;13.436;2023-03-23T10:41:05;99898.81;;;12.96;100.00
18985;BME280;9626;52.552;13.436;2023-03-23T10:43:35;99886.56;;;13.14;100.00
18985;BME280;9626;52.552;13.436;2023-03-23T10:46:05;99909.22;;;13.02;100.00
18985;BME280;9626;52.552;13.436;2023-03-23T10:48:37;99889.78;;;13.00;100.00
18985;BME280;9626;52.552;13.436;2023-03-23T10:51:09;99900.03;;;13.10;100.00
18985;BME280;9626;52.552;13.436;2023-03-23T10:53:38;99895.41;;;13.15;100.00
18985;BME280;9626;52.552;13.436;2023-03-23T10:56:22;99900.31;;;13.04;100.00
18985;BME280;9626;52.552;13.436;2023-03-23T10:58:48;99900.25;;;13.05;100.00
18985;BME280;9626;52.552;13.436;2023-03-23T11:01:18;99890.28;;;13.10;100.00
18985;BME280;9626;52.552;13.436;2023-03-23T11:03:47;99909.97;;;13.06;100.00
18985;BME280;9626;52.552;13.436;2023-03-23T11:06:27;99901.47;;;13.18;100.00
18985;BME280;9626;52.552;13.436;2023-03-23T11:09:17;99900.41;;;13.23;100.00
18985;BME280;9626;52.552;13.436;2023-03-23T11:11:49;99908.22;;;13.26;100.00
18985;BME280;9626;52.552;13.436;2023-03-23T11:14:19;99916.41;;;13.21;100.00
18985;BME280;9626;52.552;13.436;2023-03-23T11:16:51;99916.34;;;13.23;100.00
18985;BME280;9626;52.552;13.436;2023-03-23T11:19:26;99919.84;;;13.23;100.00
18985;BME280;9626;52.552;13.436;2023-03-23T11:21:54;99921.66;;;13.23;100.00
18985;BME280;9626;52.552;13.436;2023-03-23T11:24:25;99930.41;;;13.25;100.00
18985;BME280;9626;52.552;13.436;2023-03-23T11:26:53;99938.41;;;13.25;100.00
18985;BME280;9626;52.552;13.436;2023-03-23T11:29:25;99923.47;;;13.43;100.00
18985;BME280;9626;52.552;13.436;2023-03-23T11:34:34;99927.25;;;13.58;100.00
18985;BME280;9626;52.552;13.436;2023-03-23T11:37:28;99927.38;;;13.75;100.00
18985;BME280;9626;52.552;13.436;2023-03-23T11:42:35;99942.66;;;13.70;100.00
18985;BME280;9626;52.552;13.436;2023-03-23T11:50:29;99958.38;;;13.76;100.00
18985;BME280;9626;52.552;13.436;2023-03-23T11:53:13;99934.34;;;13.78;100.00
18985;BME280;9626;52.552;13.436;2023-03-23T11:58:12;99927.63;;;13.90;100.00
18985;BME280;9626;52.552;13.436;2023-03-23T12:00:49;99926.91;;;14.05;100.00
18985;BME280;9626;52.552;13.436;2023-03-23T12:06:03;99942.28;;;13.98;100.00
18985;BME280;9626;52.552;13.436;2023-03-23T12:08:58;99936.28;;;13.95;100.00
18985;BME280;9626;52.552;13.436;2023-03-23T12:17:37;99944.38;;;13.92;100.00
18985;BME280;9626;52.552;13.436;2023-03-23T12:20:28;99931.13;;;13.90;100.00
18985;BME280;9626;52.552;13.436;2023-03-23T12:28:32;99930.47;;;13.85;100.00
18985;BME280;9626;52.552;13.436;2023-03-23T12:39:02;99915.81;;;13.95;100.00
18985;BME280;9626;52.552;13.436;2023-03-23T12:41:44;99910.94;;;14.05;100.00
18985;BME280;9626;52.552;13.436;2023-03-23T12:44:14;99910.94;;;14.05;100.00
18985;BME280;9626;52.552;13.436;2023-03-23T12:49:45;99906.03;;;14.15;100.00
18985;BME280;9626;52.552;13.436;2023-03-23T12:52:21;99895.19;;;14.19;100.00
18985;BME280;9626;52.552;13.436;2023-03-23T12:55:02;99891.22;;;14.09;100.00
18985;BME280;9626;52.552;13.436;2023-03-23T12:57:43;99883.16;;;14.30;100.00
18985;BME280;9626;52.552;13.436;2023-03-23T13:00:30;99870.59;;;14.70;100.00
18985;BME280;9626;52.552;13.436;2023-03-23T13:03:33;99892.78;;;14.70;100.00
18985;BME280;9626;52.552;13.436;2023-03-23T13:06:23;99899.09;;;14.68;98.62
18985;BME280;9626;52.552;13.436;2023-03-23T13:08:56;99925.91;;;15.19;96.03
18985;BME280;9626;52.552;13.436;2023-03-23T13:11:32;99910.28;;;15.29;91.38
18985;BME280;9626;52.552;13.436;2023-03-23T13:22:52;99901.09;;;16.35;79.66
18985;BME280;9626;52.552;13.436;2023-03-23T13:27:59;99900.44;;;15.98;79.34
18985;BME280;9626;52.552;13.436;2023-03-23T13:30:27;99897.53;;;16.02;78.54
18985;BME280;9626;52.552;13.436;2023-03-23T13:33:05;99893.50;;;16.43;77.49
18985;BME280;9626;52.552;13.436;2023-03-23T13:35:41;99885.44;;;16.75;69.27
18985;BME280;9626;52.552;13.436;2023-03-23T13:38:21;99880.06;;;16.29;72.86
18985;BME280;9626;52.552;13.436;2023-03-23T13:40:48;99876.63;;;16.27;71.63
18985;BME280;9626;52.552;13.436;2023-03-23T13:43:37;99875.88;;;16.71;68.73
18985;BME280;9626;52.552;13.436;2023-03-23T13:48:47;99845.34;;;16.75;66.54
18985;BME280;9626;52.552;13.436;2023-03-23T14:01:54;99858.88;;;16.26;65.31
18985;BME280;9626;52.552;13.436;2023-03-23T14:04:23;99853.94;;;15.86;69.24
18985;BME280;9626;52.552;13.436;2023-03-23T14:06:56;99869.75;;;16.22;67.82
18985;BME280;9626;52.552;13.436;2023-03-23T14:09:36;99895.56;;;15.72;67.10
18985;BME280;9626;52.552;13.436;2023-03-23T14:12:20;99893.06;;;16.67;64.28
18985;BME280;9626;52.552;13.436;2023-03-23T14:14:50;99900.22;;;17.72;58.51
18985;BME280;9626;52.552;13.436;2023-03-23T14:17:28;99884.16;;;18.01;55.45
18985;BME280;9626;52.552;13.436;2023-03-23T14:19:57;99877.28;;;16.62;60.57
18985;BME280;9626;52.552;13.436;2023-03-23T14:22:25;99875.84;;;16.87;60.56
18985;BME280;9626;52.552;13.436;2023-03-23T14:24:59;99870.66;;;17.00;60.57
18985;BME280;9626;52.552;13.436;2023-03-23T14:27:27;99881.00;;;18.23;55.15
18985;BME280;9626;52.552;13.436;2023-03-23T14:30:00;99889.03;;;16.60;59.72
18985;BME280;9626;52.552;13.436;2023-03-23T14:32:28;99882.47;;;16.49;61.39
18985;BME280;9626;52.552;13.436;2023-03-23T14:34:57;99877.94;;;16.98;59.40
18985;BME280;9626;52.552;13.436;2023-03-23T14:37:23;99879.25;;;16.75;60.18
18985;BME280;9626;52.552;13.436;2023-03-23T14:39:52;99875.94;;;16.39;62.30
18985;BME280;9626;52.552;13.436;2023-03-23T14:42:38;99882.44;;;15.85;63.98
18985;BME280;9626;52.552;13.436;2023-03-23T14:45:05;99869.72;;;15.57;65.29
18985;BME280;9626;52.552;13.436;2023-03-23T14:47:38;99885.00;;;15.53;67.64
18985;BME280;9626;52.552;13.436;2023-03-23T14:50:07;99879.69;;;15.36;68.49
18985;BME280;9626;52.552;13.436;2023-03-23T14:52:47;99869.50;;;15.27;66.65